PWSweather.com
Personal Weather Stations
Station Observations
KTXRICHA120
Richardson, TX

Richardson, TX

Lat: 32.99476242, Lon: -96.73544312

Elevation: 679

Station Type:

High Low Average
Temperature 49.1°F9.5°C 45.7°F7.6°C 47.4°F8.6°C
Dew Point 48.6°F9.2°C 43.2°F6.2°C 46.4°F8.0°C
Winds 3.4 mph 5.5 kmh Calm Calm 1.0 mph E1.6 kmh E
Wind Gusts 5.8 mph9.3 kmh -- 1.0 mph1.6 kmh
Humidity 98% 87% 96%
Pressure 29.34 in993.6 mb 29.12 in986.1 mb -
Precipitation 0.08 in2.0 mm - -
Hour Temp Dew Point Humidity Winds Wind Gusts Pressure Precip Precip Rate Daily Precip Total
12:04 AM 47.3°F8.5°C 43.0°F6.1°C 85% 0.4 mph E0.6 kmh E 1.1 mph1.8 kmh 29.29 in991.9 mb 0.00 in0.0 mm 0.00 in0.0 mm 0.14 in3.6 mm
12:09 AM 47.1°F8.4°C 42.8°F6.0°C 85% 0.2 mph ENE0.3 kmh ENE 1.1 mph1.8 kmh 29.30 in992.2 mb 0.00 in0.0 mm 0.00 in0.0 mm 0.14 in3.6 mm
12:14 AM 47.1°F8.4°C 42.8°F6.0°C 85% Calm Calm -- 29.29 in991.9 mb 0.00 in0.0 mm 0.00 in0.0 mm 0.14 in3.6 mm
12:19 AM 47.1°F8.4°C 42.8°F6.0°C 85% 3.1 mph NE5.0 kmh NE 4.5 mph7.2 kmh 29.30 in992.2 mb 0.00 in0.0 mm 0.00 in0.0 mm 0.14 in3.6 mm
12:24 AM 47.1°F8.4°C 43.2°F6.2°C 86% 0.9 mph NE1.4 kmh NE 1.1 mph1.8 kmh 29.29 in991.9 mb 0.00 in0.0 mm 0.00 in0.0 mm 0.14 in3.6 mm
12:29 AM 47.1°F8.4°C 43.2°F6.2°C 86% Calm Calm -- 29.30 in992.2 mb 0.00 in0.0 mm 0.00 in0.0 mm 0.14 in3.6 mm
12:34 AM 47.1°F8.4°C 43.2°F6.2°C 86% 0.2 mph ENE0.3 kmh ENE 1.1 mph1.8 kmh 29.29 in991.9 mb 0.00 in0.0 mm 0.00 in0.0 mm 0.14 in3.6 mm
12:39 AM 46.9°F8.3°C 43.0°F6.1°C 86% 0.4 mph E0.6 kmh E 1.1 mph1.8 kmh 29.29 in991.9 mb 0.00 in0.0 mm 0.00 in0.0 mm 0.14 in3.6 mm
12:44 AM 46.9°F8.3°C 43.0°F6.1°C 86% Calm Calm -- 29.29 in991.9 mb 0.00 in0.0 mm 0.00 in0.0 mm 0.14 in3.6 mm
12:49 AM 46.9°F8.3°C 43.0°F6.1°C 86% 1.3 mph NE2.1 kmh NE 2.2 mph3.5 kmh 29.28 in991.5 mb 0.00 in0.0 mm 0.00 in0.0 mm 0.14 in3.6 mm
12:54 AM 46.9°F8.3°C 43.0°F6.1°C 86% 0.2 mph E0.3 kmh E 1.1 mph1.8 kmh 29.29 in991.9 mb 0.00 in0.0 mm 0.00 in0.0 mm 0.14 in3.6 mm
01:04 AM 46.9°F8.3°C 43.3°F6.3°C 87% 0.9 mph SW1.4 kmh SW 1.1 mph1.8 kmh 29.29 in991.9 mb 0.00 in0.0 mm 0.00 in0.0 mm 0.00 in0.0 mm
01:09 AM 46.9°F8.3°C 43.3°F6.3°C 87% 0.9 mph ENE1.4 kmh ENE 2.2 mph3.5 kmh 29.30 in992.2 mb 0.00 in0.0 mm 0.00 in0.0 mm 0.00 in0.0 mm
01:14 AM 46.9°F8.3°C 43.3°F6.3°C 87% 0.9 mph E1.4 kmh E 1.1 mph1.8 kmh 29.30 in992.2 mb 0.00 in0.0 mm 0.00 in0.0 mm 0.00 in0.0 mm
01:19 AM 46.9°F8.3°C 43.3°F6.3°C 87% 0.4 mph ENE0.6 kmh ENE 1.1 mph1.8 kmh 29.29 in991.9 mb 0.00 in0.0 mm 0.00 in0.0 mm 0.00 in0.0 mm
01:24 AM 46.8°F8.2°C 43.2°F6.2°C 87% Calm Calm -- 29.29 in991.9 mb 0.00 in0.0 mm 0.00 in0.0 mm 0.00 in0.0 mm
01:29 AM 46.8°F8.2°C 43.3°F6.3°C 88% Calm Calm -- 29.29 in991.9 mb 0.00 in0.0 mm 0.00 in0.0 mm 0.00 in0.0 mm
01:34 AM 46.8°F8.2°C 43.3°F6.3°C 88% 1.3 mph ENE2.1 kmh ENE 2.2 mph3.5 kmh 29.29 in991.9 mb 0.00 in0.0 mm 0.00 in0.0 mm 0.00 in0.0 mm
01:39 AM 46.8°F8.2°C 43.3°F6.3°C 88% Calm Calm -- 29.27 in991.2 mb 0.00 in0.0 mm 0.00 in0.0 mm 0.00 in0.0 mm
01:44 AM 46.8°F8.2°C 43.3°F6.3°C 88% Calm Calm -- 29.28 in991.5 mb 0.00 in0.0 mm 0.00 in0.0 mm 0.00 in0.0 mm
01:49 AM 46.8°F8.2°C 43.3°F6.3°C 88% Calm Calm -- 29.30 in992.2 mb 0.00 in0.0 mm 0.00 in0.0 mm 0.00 in0.0 mm
01:54 AM 46.8°F8.2°C 43.3°F6.3°C 88% 1.3 mph NE2.1 kmh NE 2.2 mph3.5 kmh 29.27 in991.2 mb 0.00 in0.0 mm 0.00 in0.0 mm 0.00 in0.0 mm
01:59 AM 46.8°F8.2°C 43.3°F6.3°C 88% 0.7 mph ENE1.1 kmh ENE 1.1 mph1.8 kmh 29.27 in991.2 mb 0.00 in0.0 mm 0.00 in0.0 mm 0.00 in0.0 mm
02:04 AM 46.8°F8.2°C 43.3°F6.3°C 88% Calm Calm -- 29.29 in991.9 mb 0.00 in0.0 mm 0.00 in0.0 mm 0.00 in0.0 mm
02:09 AM 46.8°F8.2°C 43.7°F6.5°C 89% 0.4 mph E0.6 kmh E 1.1 mph1.8 kmh 29.28 in991.5 mb 0.00 in0.0 mm 0.00 in0.0 mm 0.00 in0.0 mm
02:14 AM 46.8°F8.2°C 43.7°F6.5°C 89% 3.4 mph WSW5.5 kmh WSW 3.4 mph5.5 kmh 29.30 in992.2 mb 0.00 in0.0 mm 0.00 in0.0 mm 0.00 in0.0 mm
02:19 AM 46.8°F8.2°C 43.7°F6.5°C 89% 2.2 mph E3.5 kmh E 2.2 mph3.5 kmh 29.29 in991.9 mb 0.00 in0.0 mm 0.00 in0.0 mm 0.00 in0.0 mm
02:24 AM 46.8°F8.2°C 43.7°F6.5°C 89% 1.8 mph E2.9 kmh E 2.2 mph3.5 kmh 29.27 in991.2 mb 0.00 in0.0 mm 0.00 in0.0 mm 0.00 in0.0 mm
02:29 AM 46.6°F8.1°C 43.5°F6.4°C 89% 0.9 mph WSW1.4 kmh WSW 1.1 mph1.8 kmh 29.27 in991.2 mb 0.00 in0.0 mm 0.00 in0.0 mm 0.00 in0.0 mm
02:34 AM 46.8°F8.2°C 44.1°F6.7°C 90% Calm Calm -- 29.32 in992.9 mb 0.00 in0.0 mm 0.00 in0.0 mm 0.00 in0.0 mm
02:39 AM 46.8°F8.2°C 44.1°F6.7°C 90% 1.8 mph E2.9 kmh E 2.2 mph3.5 kmh 29.29 in991.9 mb 0.00 in0.0 mm 0.00 in0.0 mm 0.00 in0.0 mm
02:44 AM 46.6°F8.1°C 43.9°F6.6°C 90% 2.0 mph ENE3.2 kmh ENE 2.2 mph3.5 kmh 29.27 in991.2 mb 0.00 in0.0 mm 0.00 in0.0 mm 0.00 in0.0 mm
02:49 AM 46.6°F8.1°C 43.9°F6.6°C 90% 0.9 mph NE1.4 kmh NE 2.2 mph3.5 kmh 29.28 in991.5 mb 0.00 in0.0 mm 0.00 in0.0 mm 0.00 in0.0 mm
02:54 AM 46.6°F8.1°C 43.9°F6.6°C 90% 0.4 mph NE0.6 kmh NE 1.1 mph1.8 kmh 29.29 in991.9 mb 0.00 in0.0 mm 0.00 in0.0 mm 0.00 in0.0 mm
02:59 AM 46.6°F8.1°C 43.9°F6.6°C 90% 1.8 mph E2.9 kmh E 2.2 mph3.5 kmh 29.28 in991.5 mb 0.00 in0.0 mm 0.00 in0.0 mm 0.00 in0.0 mm
03:04 AM 46.6°F8.1°C 44.2°F6.8°C 91% Calm Calm -- 29.28 in991.5 mb 0.00 in0.0 mm 0.00 in0.0 mm 0.00 in0.0 mm
03:09 AM 46.4°F8.0°C 44.1°F6.7°C 91% Calm Calm -- 29.29 in991.9 mb 0.00 in0.0 mm 0.00 in0.0 mm 0.00 in0.0 mm
03:14 AM 46.6°F8.1°C 44.2°F6.8°C 91% 0.2 mph SE0.3 kmh SE 1.1 mph1.8 kmh 29.29 in991.9 mb 0.00 in0.0 mm 0.00 in0.0 mm 0.00 in0.0 mm
03:19 AM 46.4°F8.0°C 44.1°F6.7°C 91% Calm Calm -- 29.28 in991.5 mb 0.00 in0.0 mm 0.00 in0.0 mm 0.00 in0.0 mm
03:24 AM 46.4°F8.0°C 44.1°F6.7°C 91% Calm Calm -- 29.28 in991.5 mb 0.00 in0.0 mm 0.00 in0.0 mm 0.00 in0.0 mm
03:29 AM 46.4°F8.0°C 44.2°F6.8°C 92% 2.0 mph SSE3.2 kmh SSE 3.4 mph5.5 kmh 29.28 in991.5 mb 0.00 in0.0 mm 0.00 in0.0 mm 0.00 in0.0 mm
03:34 AM 46.4°F8.0°C 44.2°F6.8°C 92% Calm Calm -- 29.28 in991.5 mb 0.00 in0.0 mm 0.00 in0.0 mm 0.00 in0.0 mm
03:39 AM 46.2°F7.9°C 44.1°F6.7°C 92% 0.7 mph E1.1 kmh E 2.2 mph3.5 kmh 29.27 in991.2 mb 0.00 in0.0 mm 0.00 in0.0 mm 0.00 in0.0 mm
03:44 AM 46.2°F7.9°C 44.2°F6.8°C 93% Calm Calm -- 29.26 in990.9 mb 0.00 in0.0 mm 0.00 in0.0 mm 0.00 in0.0 mm
03:49 AM 46.2°F7.9°C 44.2°F6.8°C 93% 0.2 mph E0.3 kmh E 1.1 mph1.8 kmh 29.29 in991.9 mb 0.00 in0.0 mm 0.00 in0.0 mm 0.00 in0.0 mm
03:54 AM 46.2°F7.9°C 44.2°F6.8°C 93% Calm Calm -- 29.29 in991.9 mb 0.00 in0.0 mm 0.00 in0.0 mm 0.00 in0.0 mm
03:59 AM 46.2°F7.9°C 44.2°F6.8°C 93% 0.7 mph E1.1 kmh E 1.1 mph1.8 kmh 29.28 in991.5 mb 0.00 in0.0 mm 0.00 in0.0 mm 0.00 in0.0 mm
04:04 AM 46.2°F7.9°C 44.2°F6.8°C 93% 0.2 mph NE0.3 kmh NE 1.1 mph1.8 kmh 29.29 in991.9 mb 0.00 in0.0 mm 0.00 in0.0 mm 0.00 in0.0 mm
04:09 AM 46.0°F7.8°C 44.1°F6.7°C 93% 1.1 mph NE1.8 kmh NE 1.1 mph1.8 kmh 29.27 in991.2 mb 0.00 in0.0 mm 0.00 in0.0 mm 0.00 in0.0 mm
04:14 AM 46.0°F7.8°C 44.2°F6.8°C 94% Calm Calm -- 29.28 in991.5 mb 0.00 in0.0 mm 0.00 in0.0 mm 0.00 in0.0 mm
04:19 AM 46.0°F7.8°C 44.2°F6.8°C 94% 0.2 mph ENE0.3 kmh ENE 1.1 mph1.8 kmh 29.27 in991.2 mb 0.00 in0.0 mm 0.00 in0.0 mm 0.00 in0.0 mm
04:24 AM 46.0°F7.8°C 44.1°F6.7°C 93% Calm Calm -- 29.28 in991.5 mb 0.00 in0.0 mm 0.00 in0.0 mm 0.00 in0.0 mm
04:29 AM 46.0°F7.8°C 44.2°F6.8°C 94% Calm Calm -- 29.27 in991.2 mb 0.00 in0.0 mm 0.00 in0.0 mm 0.00 in0.0 mm
04:34 AM 46.0°F7.8°C 44.2°F6.8°C 94% 0.7 mph ENE1.1 kmh ENE 1.1 mph1.8 kmh 29.28 in991.5 mb 0.00 in0.0 mm 0.00 in0.0 mm 0.00 in0.0 mm
04:39 AM 46.0°F7.8°C 44.2°F6.8°C 94% Calm Calm -- 29.29 in991.9 mb 0.00 in0.0 mm 0.00 in0.0 mm 0.00 in0.0 mm
04:44 AM 46.0°F7.8°C 44.2°F6.8°C 94% Calm Calm -- 29.29 in991.9 mb 0.00 in0.0 mm 0.00 in0.0 mm 0.00 in0.0 mm
04:49 AM 46.0°F7.8°C 44.2°F6.8°C 94% 0.9 mph SE1.4 kmh SE 1.1 mph1.8 kmh 29.27 in991.2 mb 0.00 in0.0 mm 0.00 in0.0 mm 0.00 in0.0 mm
04:54 AM 46.0°F7.8°C 44.2°F6.8°C 94% 0.9 mph E1.4 kmh E 1.1 mph1.8 kmh 29.26 in990.9 mb 0.00 in0.0 mm 0.00 in0.0 mm 0.00 in0.0 mm
04:59 AM 46.0°F7.8°C 44.6°F7.0°C 95% Calm Calm -- 29.26 in990.9 mb 0.00 in0.0 mm 0.00 in0.0 mm 0.00 in0.0 mm
05:04 AM 45.9°F7.7°C 44.4°F6.9°C 95% 0.2 mph ENE0.3 kmh ENE 1.1 mph1.8 kmh 29.26 in990.9 mb 0.00 in0.0 mm 0.00 in0.0 mm 0.00 in0.0 mm
05:09 AM 45.9°F7.7°C 44.4°F6.9°C 95% 0.9 mph NE1.4 kmh NE 1.1 mph1.8 kmh 29.24 in990.2 mb 0.00 in0.0 mm 0.00 in0.0 mm 0.00 in0.0 mm
05:14 AM 45.9°F7.7°C 45.0°F7.2°C 96% 1.8 mph SE2.9 kmh SE 2.2 mph3.5 kmh 29.23 in989.8 mb 0.00 in0.0 mm 0.00 in0.0 mm 0.00 in0.0 mm
05:19 AM 45.9°F7.7°C 45.0°F7.2°C 96% 1.3 mph NE2.1 kmh NE 2.2 mph3.5 kmh 29.24 in990.2 mb 0.00 in0.0 mm 0.00 in0.0 mm 0.00 in0.0 mm
05:24 AM 45.9°F7.7°C 45.0°F7.2°C 96% 0.2 mph NE0.3 kmh NE 1.1 mph1.8 kmh 29.25 in990.5 mb 0.00 in0.0 mm 0.00 in0.0 mm 0.00 in0.0 mm
05:29 AM 45.9°F7.7°C 45.0°F7.2°C 96% 0.4 mph NE0.6 kmh NE 1.1 mph1.8 kmh 29.25 in990.5 mb 0.00 in0.0 mm 0.00 in0.0 mm 0.00 in0.0 mm
05:34 AM 45.9°F7.7°C 45.0°F7.2°C 96% Calm Calm -- 29.25 in990.5 mb 0.00 in0.0 mm 0.00 in0.0 mm 0.00 in0.0 mm
05:39 AM 45.7°F7.6°C 44.8°F7.1°C 96% 0.4 mph SSE0.6 kmh SSE 1.1 mph1.8 kmh 29.25 in990.5 mb 0.00 in0.0 mm 0.00 in0.0 mm 0.00 in0.0 mm
05:44 AM 45.9°F7.7°C 45.0°F7.2°C 96% 1.3 mph NE2.1 kmh NE 2.2 mph3.5 kmh 29.26 in990.9 mb 0.00 in0.0 mm 0.00 in0.0 mm 0.00 in0.0 mm
05:49 AM 45.9°F7.7°C 45.0°F7.2°C 96% 0.9 mph ENE1.4 kmh ENE 2.2 mph3.5 kmh 29.25 in990.5 mb 0.00 in0.0 mm 0.00 in0.0 mm 0.00 in0.0 mm
05:54 AM 45.9°F7.7°C 45.1°F7.3°C 97% 1.3 mph NE2.1 kmh NE 2.2 mph3.5 kmh 29.25 in990.5 mb 0.00 in0.0 mm 0.00 in0.0 mm 0.00 in0.0 mm
05:59 AM 45.9°F7.7°C 45.1°F7.3°C 97% 1.8 mph ESE2.9 kmh ESE 3.4 mph5.5 kmh 29.25 in990.5 mb 0.00 in0.0 mm 0.00 in0.0 mm 0.00 in0.0 mm
06:04 AM 45.9°F7.7°C 45.1°F7.3°C 97% 0.4 mph E0.6 kmh E 1.1 mph1.8 kmh 29.24 in990.2 mb 0.00 in0.0 mm 0.00 in0.0 mm 0.00 in0.0 mm
06:09 AM 45.9°F7.7°C 45.1°F7.3°C 97% 0.9 mph E1.4 kmh E 1.1 mph1.8 kmh 29.26 in990.9 mb 0.00 in0.0 mm 0.00 in0.0 mm 0.00 in0.0 mm
06:14 AM 45.9°F7.7°C 45.1°F7.3°C 97% 2.7 mph ESE4.3 kmh ESE 3.4 mph5.5 kmh 29.26 in990.9 mb 0.00 in0.0 mm 0.00 in0.0 mm 0.00 in0.0 mm
06:19 AM 45.9°F7.7°C 45.1°F7.3°C 97% 1.1 mph ENE1.8 kmh ENE 1.1 mph1.8 kmh 29.26 in990.9 mb 0.01 in0.3 mm 0.12 in3.0 mm 0.01 in0.3 mm
06:24 AM 45.9°F7.7°C 45.1°F7.3°C 97% 2.0 mph NE3.2 kmh NE 2.2 mph3.5 kmh 29.25 in990.5 mb 0.01 in0.3 mm 0.00 in0.0 mm 0.01 in0.3 mm
06:29 AM 45.9°F7.7°C 45.1°F7.3°C 97% 0.9 mph NE1.4 kmh NE 1.1 mph1.8 kmh 29.24 in990.2 mb 0.01 in0.3 mm 0.00 in0.0 mm 0.01 in0.3 mm
06:34 AM 45.9°F7.7°C 45.1°F7.3°C 97% 1.3 mph NE2.1 kmh NE 2.2 mph3.5 kmh 29.24 in990.2 mb 0.02 in0.5 mm 0.12 in3.0 mm 0.02 in0.5 mm
06:39 AM 45.9°F7.7°C 45.1°F7.3°C 97% 1.3 mph NNW2.1 kmh NNW 2.2 mph3.5 kmh 29.24 in990.2 mb 0.02 in0.5 mm 0.00 in0.0 mm 0.02 in0.5 mm
06:44 AM 45.9°F7.7°C 45.1°F7.3°C 97% 1.3 mph ENE2.1 kmh ENE 2.2 mph3.5 kmh 29.24 in990.2 mb 0.02 in0.5 mm 0.00 in0.0 mm 0.02 in0.5 mm
06:49 AM 45.9°F7.7°C 45.1°F7.3°C 97% 0.2 mph NE0.3 kmh NE 1.1 mph1.8 kmh 29.22 in989.5 mb 0.02 in0.5 mm 0.00 in0.0 mm 0.02 in0.5 mm
06:54 AM 45.9°F7.7°C 45.1°F7.3°C 97% 1.3 mph NE2.1 kmh NE 2.2 mph3.5 kmh 29.22 in989.5 mb 0.02 in0.5 mm 0.00 in0.0 mm 0.02 in0.5 mm
06:59 AM 45.7°F7.6°C 45.0°F7.2°C 97% 1.6 mph ENE2.6 kmh ENE 3.4 mph5.5 kmh 29.23 in989.8 mb 0.02 in0.5 mm 0.00 in0.0 mm 0.02 in0.5 mm
07:04 AM 45.7°F7.6°C 45.0°F7.2°C 97% 0.2 mph NE0.3 kmh NE 1.1 mph1.8 kmh 29.23 in989.8 mb 0.02 in0.5 mm 0.00 in0.0 mm 0.02 in0.5 mm
07:09 AM 45.7°F7.6°C 45.0°F7.2°C 97% Calm Calm -- 29.21 in989.2 mb 0.02 in0.5 mm 0.00 in0.0 mm 0.02 in0.5 mm
07:14 AM 45.7°F7.6°C 45.0°F7.2°C 97% 0.9 mph NE1.4 kmh NE 1.1 mph1.8 kmh 29.21 in989.2 mb 0.02 in0.5 mm 0.00 in0.0 mm 0.02 in0.5 mm
07:19 AM 45.7°F7.6°C 45.0°F7.2°C 97% 1.3 mph NNE2.1 kmh NNE 2.2 mph3.5 kmh 29.21 in989.2 mb 0.01 in0.3 mm 0.00 in0.0 mm 0.02 in0.5 mm
07:24 AM 45.7°F7.6°C 45.0°F7.2°C 97% 2.2 mph NNW3.5 kmh NNW 5.8 mph9.3 kmh 29.22 in989.5 mb 0.01 in0.3 mm 0.00 in0.0 mm 0.02 in0.5 mm
07:29 AM 45.9°F7.7°C 45.3°F7.4°C 98% Calm Calm -- 29.24 in990.2 mb 0.00 in0.0 mm 0.00 in0.0 mm 0.02 in0.5 mm
07:34 AM 45.9°F7.7°C 45.3°F7.4°C 98% 0.4 mph SE0.6 kmh SE 1.1 mph1.8 kmh 29.24 in990.2 mb 0.00 in0.0 mm 0.00 in0.0 mm 0.02 in0.5 mm
07:39 AM 45.9°F7.7°C 45.3°F7.4°C 98% 0.2 mph ENE0.3 kmh ENE 1.1 mph1.8 kmh 29.24 in990.2 mb 0.00 in0.0 mm 0.00 in0.0 mm 0.02 in0.5 mm
07:44 AM 45.9°F7.7°C 45.3°F7.4°C 98% Calm Calm -- 29.24 in990.2 mb 0.00 in0.0 mm 0.00 in0.0 mm 0.02 in0.5 mm
07:49 AM 45.9°F7.7°C 45.3°F7.4°C 98% 1.1 mph NE1.8 kmh NE 1.1 mph1.8 kmh 29.25 in990.5 mb 0.00 in0.0 mm 0.00 in0.0 mm 0.02 in0.5 mm
07:54 AM 45.9°F7.7°C 45.3°F7.4°C 98% 0.7 mph NE1.1 kmh NE 2.2 mph3.5 kmh 29.24 in990.2 mb 0.00 in0.0 mm 0.00 in0.0 mm 0.02 in0.5 mm
07:59 AM 45.9°F7.7°C 45.3°F7.4°C 98% 0.7 mph NE1.1 kmh NE 1.1 mph1.8 kmh 29.25 in990.5 mb 0.00 in0.0 mm 0.00 in0.0 mm 0.02 in0.5 mm
08:04 AM 45.9°F7.7°C 45.3°F7.4°C 98% 0.4 mph NE0.6 kmh NE 1.1 mph1.8 kmh 29.25 in990.5 mb 0.00 in0.0 mm 0.00 in0.0 mm 0.02 in0.5 mm
08:09 AM 46.0°F7.8°C 45.5°F7.5°C 98% 0.2 mph NE0.3 kmh NE 1.1 mph1.8 kmh 29.27 in991.2 mb 0.00 in0.0 mm 0.00 in0.0 mm 0.02 in0.5 mm
08:14 AM 46.0°F7.8°C 45.5°F7.5°C 98% 0.9 mph WNW1.4 kmh WNW 1.1 mph1.8 kmh 29.26 in990.9 mb 0.00 in0.0 mm 0.00 in0.0 mm 0.02 in0.5 mm
08:19 AM 46.0°F7.8°C 45.5°F7.5°C 98% Calm Calm -- 29.27 in991.2 mb 0.00 in0.0 mm 0.00 in0.0 mm 0.02 in0.5 mm
08:24 AM 46.0°F7.8°C 45.5°F7.5°C 98% 1.3 mph ENE2.1 kmh ENE 2.2 mph3.5 kmh 29.27 in991.2 mb 0.00 in0.0 mm 0.00 in0.0 mm 0.02 in0.5 mm
08:29 AM 46.0°F7.8°C 45.5°F7.5°C 98% 0.7 mph ENE1.1 kmh ENE 1.1 mph1.8 kmh 29.26 in990.9 mb 0.00 in0.0 mm 0.00 in0.0 mm 0.02 in0.5 mm
08:34 AM 46.0°F7.8°C 45.5°F7.5°C 98% 1.3 mph ENE2.1 kmh ENE 2.2 mph3.5 kmh 29.27 in991.2 mb 0.00 in0.0 mm 0.00 in0.0 mm 0.02 in0.5 mm
08:39 AM 46.0°F7.8°C 45.5°F7.5°C 98% Calm Calm -- 29.27 in991.2 mb 0.00 in0.0 mm 0.00 in0.0 mm 0.02 in0.5 mm
08:44 AM 46.0°F7.8°C 45.5°F7.5°C 98% Calm Calm -- 29.29 in991.9 mb 0.00 in0.0 mm 0.00 in0.0 mm 0.02 in0.5 mm
08:49 AM 46.2°F7.9°C 45.7°F7.6°C 98% 0.7 mph SSW1.1 kmh SSW 1.1 mph1.8 kmh 29.29 in991.9 mb 0.00 in0.0 mm 0.00 in0.0 mm 0.02 in0.5 mm
08:54 AM 46.0°F7.8°C 45.5°F7.5°C 98% 0.2 mph S0.3 kmh S 1.1 mph1.8 kmh 29.29 in991.9 mb 0.00 in0.0 mm 0.00 in0.0 mm 0.02 in0.5 mm
08:59 AM 46.0°F7.8°C 45.5°F7.5°C 98% Calm Calm -- 29.29 in991.9 mb 0.00 in0.0 mm 0.00 in0.0 mm 0.02 in0.5 mm
09:04 AM 46.0°F7.8°C 45.5°F7.5°C 98% Calm Calm -- 29.28 in991.5 mb 0.00 in0.0 mm 0.00 in0.0 mm 0.02 in0.5 mm
09:09 AM 46.2°F7.9°C 45.7°F7.6°C 98% 0.7 mph E1.1 kmh E 1.1 mph1.8 kmh 29.29 in991.9 mb 0.00 in0.0 mm 0.00 in0.0 mm 0.02 in0.5 mm
09:14 AM 46.2°F7.9°C 45.7°F7.6°C 98% Calm Calm -- 29.29 in991.9 mb 0.00 in0.0 mm 0.00 in0.0 mm 0.02 in0.5 mm
09:19 AM 46.2°F7.9°C 45.7°F7.6°C 98% Calm Calm -- 29.29 in991.9 mb 0.00 in0.0 mm 0.00 in0.0 mm 0.02 in0.5 mm
09:24 AM 46.2°F7.9°C 45.7°F7.6°C 98% 0.4 mph NE0.6 kmh NE 1.1 mph1.8 kmh 29.29 in991.9 mb 0.00 in0.0 mm 0.00 in0.0 mm 0.02 in0.5 mm
09:29 AM 46.2°F7.9°C 45.7°F7.6°C 98% Calm Calm -- 29.30 in992.2 mb 0.00 in0.0 mm 0.00 in0.0 mm 0.02 in0.5 mm
09:34 AM 46.6°F8.1°C 46.0°F7.8°C 98% 0.7 mph NE1.1 kmh NE 1.1 mph1.8 kmh 29.29 in991.9 mb 0.00 in0.0 mm 0.00 in0.0 mm 0.02 in0.5 mm
09:39 AM 46.4°F8.0°C 45.9°F7.7°C 98% Calm Calm -- 29.30 in992.2 mb 0.00 in0.0 mm 0.00 in0.0 mm 0.02 in0.5 mm
09:44 AM 46.4°F8.0°C 45.9°F7.7°C 98% Calm Calm -- 29.31 in992.6 mb 0.00 in0.0 mm 0.00 in0.0 mm 0.02 in0.5 mm
09:49 AM 46.4°F8.0°C 45.9°F7.7°C 98% Calm Calm -- 29.33 in993.2 mb 0.00 in0.0 mm 0.00 in0.0 mm 0.02 in0.5 mm
09:54 AM 46.4°F8.0°C 45.9°F7.7°C 98% Calm Calm -- 29.33 in993.2 mb 0.00 in0.0 mm 0.00 in0.0 mm 0.02 in0.5 mm
09:59 AM 46.4°F8.0°C 45.9°F7.7°C 98% 0.9 mph NE1.4 kmh NE 1.1 mph1.8 kmh 29.32 in992.9 mb 0.00 in0.0 mm 0.00 in0.0 mm 0.02 in0.5 mm
10:04 AM 46.4°F8.0°C 45.9°F7.7°C 98% Calm Calm -- 29.32 in992.9 mb 0.00 in0.0 mm 0.00 in0.0 mm 0.02 in0.5 mm
10:09 AM 46.4°F8.0°C 45.9°F7.7°C 98% Calm Calm -- 29.32 in992.9 mb 0.00 in0.0 mm 0.00 in0.0 mm 0.02 in0.5 mm
10:14 AM 46.6°F8.1°C 46.0°F7.8°C 98% 0.7 mph NE1.1 kmh NE 1.1 mph1.8 kmh 29.32 in992.9 mb 0.00 in0.0 mm 0.00 in0.0 mm 0.02 in0.5 mm
10:19 AM 46.6°F8.1°C 46.0°F7.8°C 98% Calm Calm -- 29.32 in992.9 mb 0.00 in0.0 mm 0.00 in0.0 mm 0.02 in0.5 mm
10:24 AM 46.6°F8.1°C 46.0°F7.8°C 98% Calm Calm -- 29.32 in992.9 mb 0.00 in0.0 mm 0.00 in0.0 mm 0.02 in0.5 mm
10:29 AM 46.8°F8.2°C 46.2°F7.9°C 98% 0.9 mph NE1.4 kmh NE 1.1 mph1.8 kmh 29.33 in993.2 mb 0.00 in0.0 mm 0.00 in0.0 mm 0.02 in0.5 mm
10:34 AM 46.8°F8.2°C 46.2°F7.9°C 98% 0.4 mph NE0.6 kmh NE 1.1 mph1.8 kmh 29.33 in993.2 mb 0.00 in0.0 mm 0.00 in0.0 mm 0.02 in0.5 mm
10:39 AM 46.8°F8.2°C 46.2°F7.9°C 98% 0.2 mph NE0.3 kmh NE 1.1 mph1.8 kmh 29.32 in992.9 mb 0.00 in0.0 mm 0.00 in0.0 mm 0.02 in0.5 mm
10:44 AM 46.9°F8.3°C 46.4°F8.0°C 98% Calm Calm -- 29.33 in993.2 mb 0.01 in0.3 mm 0.12 in3.0 mm 0.03 in0.8 mm
10:49 AM 46.9°F8.3°C 46.4°F8.0°C 98% Calm Calm -- 29.33 in993.2 mb 0.01 in0.3 mm 0.00 in0.0 mm 0.03 in0.8 mm
10:54 AM 46.9°F8.3°C 46.4°F8.0°C 98% Calm Calm -- 29.33 in993.2 mb 0.01 in0.3 mm 0.00 in0.0 mm 0.03 in0.8 mm
10:59 AM 46.9°F8.3°C 46.4°F8.0°C 98% 0.9 mph NE1.4 kmh NE 1.1 mph1.8 kmh 29.34 in993.6 mb 0.01 in0.3 mm 0.00 in0.0 mm 0.03 in0.8 mm
11:04 AM 46.9°F8.3°C 46.4°F8.0°C 98% Calm Calm -- 29.34 in993.6 mb 0.01 in0.3 mm 0.00 in0.0 mm 0.03 in0.8 mm
11:09 AM 47.1°F8.4°C 46.6°F8.1°C 98% 0.2 mph NE0.3 kmh NE 1.1 mph1.8 kmh 29.33 in993.2 mb 0.01 in0.3 mm 0.00 in0.0 mm 0.03 in0.8 mm
11:14 AM 47.3°F8.5°C 46.6°F8.1°C 97% Calm Calm -- 29.32 in992.9 mb 0.01 in0.3 mm 0.00 in0.0 mm 0.03 in0.8 mm
11:19 AM 47.1°F8.4°C 46.4°F8.0°C 97% 0.7 mph NE1.1 kmh NE 1.1 mph1.8 kmh 29.32 in992.9 mb 0.01 in0.3 mm 0.00 in0.0 mm 0.03 in0.8 mm
11:24 AM 46.9°F8.3°C 46.2°F7.9°C 97% 0.2 mph NE0.3 kmh NE 1.1 mph1.8 kmh 29.33 in993.2 mb 0.01 in0.3 mm 0.00 in0.0 mm 0.03 in0.8 mm
11:29 AM 46.9°F8.3°C 46.2°F7.9°C 97% 2.2 mph NE3.5 kmh NE 3.4 mph5.5 kmh 29.31 in992.6 mb 0.01 in0.3 mm 0.00 in0.0 mm 0.03 in0.8 mm
11:34 AM 47.1°F8.4°C 46.4°F8.0°C 97% 0.4 mph ENE0.6 kmh ENE 1.1 mph1.8 kmh 29.31 in992.6 mb 0.01 in0.3 mm 0.00 in0.0 mm 0.03 in0.8 mm
11:39 AM 47.1°F8.4°C 46.4°F8.0°C 97% Calm Calm -- 29.32 in992.9 mb 0.00 in0.0 mm 0.00 in0.0 mm 0.03 in0.8 mm
11:44 AM 47.1°F8.4°C 46.4°F8.0°C 97% 0.9 mph NE1.4 kmh NE 1.1 mph1.8 kmh 29.31 in992.6 mb 0.00 in0.0 mm 0.00 in0.0 mm 0.03 in0.8 mm
11:49 AM 47.1°F8.4°C 46.4°F8.0°C 97% 1.8 mph NE2.9 kmh NE 2.2 mph3.5 kmh 29.31 in992.6 mb 0.00 in0.0 mm 0.00 in0.0 mm 0.03 in0.8 mm
11:54 AM 47.1°F8.4°C 46.2°F7.9°C 96% 1.3 mph NE2.1 kmh NE 2.2 mph3.5 kmh 29.31 in992.6 mb 0.00 in0.0 mm 0.00 in0.0 mm 0.03 in0.8 mm
11:59 AM 47.3°F8.5°C 46.4°F8.0°C 96% Calm Calm -- 29.32 in992.9 mb 0.00 in0.0 mm 0.00 in0.0 mm 0.03 in0.8 mm
12:04 PM 47.5°F8.6°C 46.8°F8.2°C 97% 1.3 mph NE2.1 kmh NE 2.2 mph3.5 kmh 29.31 in992.6 mb 0.00 in0.0 mm 0.00 in0.0 mm 0.03 in0.8 mm
12:09 PM 47.3°F8.5°C 46.4°F8.0°C 96% 1.6 mph NE2.6 kmh NE 2.2 mph3.5 kmh 29.31 in992.6 mb 0.00 in0.0 mm 0.00 in0.0 mm 0.03 in0.8 mm
12:14 PM 47.1°F8.4°C 46.2°F7.9°C 96% 0.9 mph NE1.4 kmh NE 2.2 mph3.5 kmh 29.31 in992.6 mb 0.00 in0.0 mm 0.00 in0.0 mm 0.03 in0.8 mm
12:19 PM 47.3°F8.5°C 46.4°F8.0°C 96% 2.9 mph NE4.7 kmh NE 4.5 mph7.2 kmh 29.31 in992.6 mb 0.00 in0.0 mm 0.00 in0.0 mm 0.03 in0.8 mm
12:24 PM 47.3°F8.5°C 46.4°F8.0°C 96% Calm Calm -- 29.30 in992.2 mb 0.00 in0.0 mm 0.00 in0.0 mm 0.03 in0.8 mm
12:29 PM 47.3°F8.5°C 46.4°F8.0°C 96% Calm Calm -- 29.30 in992.2 mb 0.00 in0.0 mm 0.00 in0.0 mm 0.03 in0.8 mm
12:34 PM 47.3°F8.5°C 46.4°F8.0°C 96% 1.3 mph NE2.1 kmh NE 2.2 mph3.5 kmh 29.30 in992.2 mb 0.00 in0.0 mm 0.00 in0.0 mm 0.03 in0.8 mm
12:39 PM 47.3°F8.5°C 46.6°F8.1°C 97% 1.1 mph NE1.8 kmh NE 1.1 mph1.8 kmh 29.28 in991.5 mb 0.02 in0.5 mm 0.24 in6.1 mm 0.05 in1.3 mm
12:44 PM 47.5°F8.6°C 46.8°F8.2°C 97% 2.7 mph NE4.3 kmh NE 3.4 mph5.5 kmh 29.29 in991.9 mb 0.03 in0.8 mm 0.12 in3.0 mm 0.06 in1.5 mm
12:49 PM 47.3°F8.5°C 46.6°F8.1°C 97% 2.9 mph NE4.7 kmh NE 3.4 mph5.5 kmh 29.28 in991.5 mb 0.03 in0.8 mm 0.00 in0.0 mm 0.06 in1.5 mm
12:54 PM 47.5°F8.6°C 46.8°F8.2°C 97% 1.3 mph NE2.1 kmh NE 2.2 mph3.5 kmh 29.28 in991.5 mb 0.03 in0.8 mm 0.00 in0.0 mm 0.06 in1.5 mm
12:59 PM 47.5°F8.6°C 46.8°F8.2°C 97% 1.8 mph NE2.9 kmh NE 2.2 mph3.5 kmh 29.28 in991.5 mb 0.03 in0.8 mm 0.00 in0.0 mm 0.06 in1.5 mm
01:04 PM 47.5°F8.6°C 46.8°F8.2°C 97% 1.3 mph NE2.1 kmh NE 2.2 mph3.5 kmh 29.27 in991.2 mb 0.03 in0.8 mm 0.00 in0.0 mm 0.06 in1.5 mm
01:09 PM 47.7°F8.7°C 46.8°F8.2°C 96% 0.7 mph NE1.1 kmh NE 1.1 mph1.8 kmh 29.29 in991.9 mb 0.03 in0.8 mm 0.00 in0.0 mm 0.06 in1.5 mm
01:14 PM 47.5°F8.6°C 46.8°F8.2°C 97% Calm Calm -- 29.28 in991.5 mb 0.01 in0.3 mm 0.00 in0.0 mm 0.07 in1.8 mm
01:19 PM 47.5°F8.6°C 46.6°F8.1°C 96% 2.2 mph NE3.5 kmh NE 3.4 mph5.5 kmh 29.27 in991.2 mb 0.01 in0.3 mm 0.00 in0.0 mm 0.07 in1.8 mm
01:24 PM 47.3°F8.5°C 46.4°F8.0°C 96% 0.9 mph NE1.4 kmh NE 1.1 mph1.8 kmh 29.27 in991.2 mb 0.01 in0.3 mm 0.00 in0.0 mm 0.07 in1.8 mm
01:29 PM 47.3°F8.5°C 46.4°F8.0°C 96% 1.1 mph NE1.8 kmh NE 1.1 mph1.8 kmh 29.26 in990.9 mb 0.01 in0.3 mm 0.00 in0.0 mm 0.07 in1.8 mm
01:34 PM 47.7°F8.7°C 46.9°F8.3°C 97% 0.7 mph NE1.1 kmh NE 1.1 mph1.8 kmh 29.26 in990.9 mb 0.01 in0.3 mm 0.00 in0.0 mm 0.07 in1.8 mm
01:39 PM 47.7°F8.7°C 46.8°F8.2°C 96% 2.7 mph NE4.3 kmh NE 3.4 mph5.5 kmh 29.25 in990.5 mb 0.01 in0.3 mm 0.00 in0.0 mm 0.07 in1.8 mm
01:44 PM 47.7°F8.7°C 46.8°F8.2°C 96% 1.1 mph ENE1.8 kmh ENE 2.2 mph3.5 kmh 29.25 in990.5 mb 0.01 in0.3 mm 0.00 in0.0 mm 0.07 in1.8 mm
01:49 PM 47.8°F8.8°C 47.1°F8.4°C 97% 0.9 mph NE1.4 kmh NE 2.2 mph3.5 kmh 29.25 in990.5 mb 0.01 in0.3 mm 0.00 in0.0 mm 0.07 in1.8 mm
01:54 PM 48.0°F8.9°C 47.3°F8.5°C 97% 0.2 mph NE0.3 kmh NE 1.1 mph1.8 kmh 29.25 in990.5 mb 0.01 in0.3 mm 0.00 in0.0 mm 0.07 in1.8 mm
01:59 PM 47.7°F8.7°C 46.9°F8.3°C 97% 0.9 mph NE1.4 kmh NE 1.1 mph1.8 kmh 29.26 in990.9 mb 0.01 in0.3 mm 0.00 in0.0 mm 0.07 in1.8 mm
02:04 PM 47.7°F8.7°C 46.9°F8.3°C 97% 1.8 mph NE2.9 kmh NE 2.2 mph3.5 kmh 29.26 in990.9 mb 0.01 in0.3 mm 0.00 in0.0 mm 0.07 in1.8 mm
02:09 PM 47.7°F8.7°C 46.9°F8.3°C 97% 2.2 mph NE3.5 kmh NE 3.4 mph5.5 kmh 29.24 in990.2 mb 0.01 in0.3 mm 0.00 in0.0 mm 0.07 in1.8 mm
02:14 PM 47.5°F8.6°C 46.8°F8.2°C 97% 0.2 mph NE0.3 kmh NE 1.1 mph1.8 kmh 29.24 in990.2 mb 0.00 in0.0 mm 0.00 in0.0 mm 0.07 in1.8 mm
02:19 PM 47.8°F8.8°C 47.1°F8.4°C 97% 1.8 mph E2.9 kmh E 2.2 mph3.5 kmh 29.24 in990.2 mb 0.00 in0.0 mm 0.00 in0.0 mm 0.07 in1.8 mm
02:24 PM 47.7°F8.7°C 46.9°F8.3°C 97% 0.4 mph NE0.6 kmh NE 1.1 mph1.8 kmh 29.24 in990.2 mb 0.00 in0.0 mm 0.00 in0.0 mm 0.07 in1.8 mm
02:29 PM 47.5°F8.6°C 46.8°F8.2°C 97% 2.5 mph NE4.0 kmh NE 3.4 mph5.5 kmh 29.22 in989.5 mb 0.00 in0.0 mm 0.00 in0.0 mm 0.07 in1.8 mm
02:34 PM 47.5°F8.6°C 46.8°F8.2°C 97% 2.5 mph NE4.0 kmh NE 4.5 mph7.2 kmh 29.22 in989.5 mb 0.00 in0.0 mm 0.00 in0.0 mm 0.07 in1.8 mm
02:39 PM 47.7°F8.7°C 46.9°F8.3°C 97% 1.3 mph NE2.1 kmh NE 2.2 mph3.5 kmh 29.21 in989.2 mb 0.00 in0.0 mm 0.00 in0.0 mm 0.07 in1.8 mm
02:44 PM 47.5°F8.6°C 46.8°F8.2°C 97% 0.2 mph NE0.3 kmh NE 1.1 mph1.8 kmh 29.22 in989.5 mb 0.00 in0.0 mm 0.00 in0.0 mm 0.07 in1.8 mm
02:49 PM 47.5°F8.6°C 46.9°F8.3°C 98% Calm Calm -- 29.21 in989.2 mb 0.00 in0.0 mm 0.00 in0.0 mm 0.07 in1.8 mm
02:54 PM 47.7°F8.7°C 47.1°F8.4°C 98% Calm Calm -- 29.22 in989.5 mb 0.00 in0.0 mm 0.00 in0.0 mm 0.07 in1.8 mm
02:59 PM 47.7°F8.7°C 47.1°F8.4°C 98% 0.4 mph NE0.6 kmh NE 1.1 mph1.8 kmh 29.21 in989.2 mb 0.00 in0.0 mm 0.00 in0.0 mm 0.07 in1.8 mm
03:04 PM 47.5°F8.6°C 46.9°F8.3°C 98% 1.8 mph NE2.9 kmh NE 2.2 mph3.5 kmh 29.21 in989.2 mb 0.00 in0.0 mm 0.00 in0.0 mm 0.07 in1.8 mm
03:09 PM 47.7°F8.7°C 47.1°F8.4°C 98% Calm Calm -- 29.22 in989.5 mb 0.00 in0.0 mm 0.00 in0.0 mm 0.07 in1.8 mm
03:14 PM 47.7°F8.7°C 47.1°F8.4°C 98% 0.7 mph NE1.1 kmh NE 1.1 mph1.8 kmh 29.22 in989.5 mb 0.00 in0.0 mm 0.00 in0.0 mm 0.07 in1.8 mm
03:19 PM 47.7°F8.7°C 47.1°F8.4°C 98% 0.2 mph NE0.3 kmh NE 1.1 mph1.8 kmh 29.22 in989.5 mb 0.00 in0.0 mm 0.00 in0.0 mm 0.07 in1.8 mm
03:24 PM 47.8°F8.8°C 47.3°F8.5°C 98% 1.1 mph ENE1.8 kmh ENE 1.1 mph1.8 kmh 29.21 in989.2 mb 0.00 in0.0 mm 0.00 in0.0 mm 0.07 in1.8 mm
03:29 PM 47.8°F8.8°C 47.3°F8.5°C 98% 0.4 mph SSW0.6 kmh SSW 1.1 mph1.8 kmh 29.22 in989.5 mb 0.00 in0.0 mm 0.00 in0.0 mm 0.07 in1.8 mm
03:34 PM 47.7°F8.7°C 47.1°F8.4°C 98% Calm Calm -- 29.21 in989.2 mb 0.00 in0.0 mm 0.00 in0.0 mm 0.07 in1.8 mm
03:39 PM 47.8°F8.8°C 47.3°F8.5°C 98% Calm Calm -- 29.22 in989.5 mb 0.00 in0.0 mm 0.00 in0.0 mm 0.07 in1.8 mm
03:44 PM 47.8°F8.8°C 47.3°F8.5°C 98% 1.1 mph E1.8 kmh E 1.1 mph1.8 kmh 29.22 in989.5 mb 0.00 in0.0 mm 0.00 in0.0 mm 0.07 in1.8 mm
03:49 PM 47.8°F8.8°C 47.1°F8.4°C 97% 1.8 mph ENE2.9 kmh ENE 2.2 mph3.5 kmh 29.21 in989.2 mb 0.00 in0.0 mm 0.00 in0.0 mm 0.07 in1.8 mm
03:54 PM 47.8°F8.8°C 47.1°F8.4°C 97% 0.7 mph ENE1.1 kmh ENE 1.1 mph1.8 kmh 29.21 in989.2 mb 0.01 in0.3 mm 0.12 in3.0 mm 0.08 in2.0 mm
03:59 PM 47.8°F8.8°C 47.1°F8.4°C 97% 0.7 mph ENE1.1 kmh ENE 1.1 mph1.8 kmh 29.21 in989.2 mb 0.01 in0.3 mm 0.00 in0.0 mm 0.08 in2.0 mm
04:04 PM 47.8°F8.8°C 47.1°F8.4°C 97% 1.1 mph ENE1.8 kmh ENE 1.1 mph1.8 kmh 29.21 in989.2 mb 0.01 in0.3 mm 0.00 in0.0 mm 0.08 in2.0 mm
04:09 PM 48.0°F8.9°C 47.3°F8.5°C 97% Calm Calm -- 29.21 in989.2 mb 0.01 in0.3 mm 0.00 in0.0 mm 0.08 in2.0 mm
04:14 PM 48.0°F8.9°C 47.3°F8.5°C 97% 0.4 mph E0.6 kmh E 1.1 mph1.8 kmh 29.21 in989.2 mb 0.01 in0.3 mm 0.00 in0.0 mm 0.08 in2.0 mm
04:19 PM 48.2°F9.0°C 47.5°F8.6°C 97% 1.3 mph NE2.1 kmh NE 2.2 mph3.5 kmh 29.21 in989.2 mb 0.01 in0.3 mm 0.00 in0.0 mm 0.08 in2.0 mm
04:24 PM 48.2°F9.0°C 47.5°F8.6°C 97% 0.9 mph ENE1.4 kmh ENE 1.1 mph1.8 kmh 29.21 in989.2 mb 0.01 in0.3 mm 0.00 in0.0 mm 0.08 in2.0 mm
04:29 PM 48.2°F9.0°C 47.5°F8.6°C 97% 1.3 mph NE2.1 kmh NE 2.2 mph3.5 kmh 29.20 in988.8 mb 0.01 in0.3 mm 0.00 in0.0 mm 0.08 in2.0 mm
04:34 PM 48.2°F9.0°C 47.3°F8.5°C 96% 1.6 mph ENE2.6 kmh ENE 2.2 mph3.5 kmh 29.20 in988.8 mb 0.01 in0.3 mm 0.00 in0.0 mm 0.08 in2.0 mm
04:39 PM 48.6°F9.2°C 47.7°F8.7°C 96% 0.4 mph E0.6 kmh E 1.1 mph1.8 kmh 29.20 in988.8 mb 0.01 in0.3 mm 0.00 in0.0 mm 0.08 in2.0 mm
04:44 PM 48.6°F9.2°C 47.7°F8.7°C 96% 2.0 mph E3.2 kmh E 2.2 mph3.5 kmh 29.20 in988.8 mb 0.01 in0.3 mm 0.00 in0.0 mm 0.08 in2.0 mm
04:49 PM 48.4°F9.1°C 47.5°F8.6°C 96% 0.4 mph NE0.6 kmh NE 1.1 mph1.8 kmh 29.20 in988.8 mb 0.01 in0.3 mm 0.00 in0.0 mm 0.08 in2.0 mm
04:54 PM 48.6°F9.2°C 47.7°F8.7°C 96% 0.7 mph NE1.1 kmh NE 1.1 mph1.8 kmh 29.20 in988.8 mb 0.00 in0.0 mm 0.00 in0.0 mm 0.08 in2.0 mm
04:59 PM 48.7°F9.3°C 47.8°F8.8°C 96% Calm Calm -- 29.20 in988.8 mb 0.00 in0.0 mm 0.00 in0.0 mm 0.08 in2.0 mm
05:04 PM 48.7°F9.3°C 47.3°F8.5°C 95% 0.2 mph ENE0.3 kmh ENE 1.1 mph1.8 kmh 29.20 in988.8 mb 0.00 in0.0 mm 0.00 in0.0 mm 0.08 in2.0 mm
05:09 PM 48.7°F9.3°C 47.8°F8.8°C 96% 0.4 mph ENE0.6 kmh ENE 1.1 mph1.8 kmh 29.20 in988.8 mb 0.00 in0.0 mm 0.00 in0.0 mm 0.08 in2.0 mm
05:14 PM 48.7°F9.3°C 47.8°F8.8°C 96% Calm Calm -- 29.20 in988.8 mb 0.00 in0.0 mm 0.00 in0.0 mm 0.08 in2.0 mm
05:19 PM 48.7°F9.3°C 47.8°F8.8°C 96% Calm Calm -- 29.20 in988.8 mb 0.00 in0.0 mm 0.00 in0.0 mm 0.08 in2.0 mm
05:24 PM 48.7°F9.3°C 47.8°F8.8°C 96% Calm Calm -- 29.20 in988.8 mb 0.00 in0.0 mm 0.00 in0.0 mm 0.08 in2.0 mm
05:29 PM 48.7°F9.3°C 47.8°F8.8°C 96% 0.2 mph SE0.3 kmh SE 1.1 mph1.8 kmh 29.21 in989.2 mb 0.00 in0.0 mm 0.00 in0.0 mm 0.08 in2.0 mm
05:34 PM 48.6°F9.2°C 47.7°F8.7°C 96% 0.7 mph SE1.1 kmh SE 1.1 mph1.8 kmh 29.21 in989.2 mb 0.00 in0.0 mm 0.00 in0.0 mm 0.08 in2.0 mm
05:39 PM 48.4°F9.1°C 47.5°F8.6°C 96% 0.2 mph E0.3 kmh E 1.1 mph1.8 kmh 29.21 in989.2 mb 0.00 in0.0 mm 0.00 in0.0 mm 0.08 in2.0 mm
05:44 PM 48.2°F9.0°C 47.3°F8.5°C 96% Calm Calm -- 29.21 in989.2 mb 0.00 in0.0 mm 0.00 in0.0 mm 0.08 in2.0 mm
05:49 PM 48.4°F9.1°C 47.5°F8.6°C 96% Calm Calm -- 29.21 in989.2 mb 0.00 in0.0 mm 0.00 in0.0 mm 0.08 in2.0 mm
05:54 PM 48.4°F9.1°C 47.7°F8.7°C 97% Calm Calm -- 29.21 in989.2 mb 0.00 in0.0 mm 0.00 in0.0 mm 0.08 in2.0 mm
05:59 PM 48.4°F9.1°C 47.7°F8.7°C 97% 0.4 mph E0.6 kmh E 1.1 mph1.8 kmh 29.20 in988.8 mb 0.00 in0.0 mm 0.00 in0.0 mm 0.08 in2.0 mm
06:04 PM 48.4°F9.1°C 47.7°F8.7°C 97% 0.2 mph E0.3 kmh E 1.1 mph1.8 kmh 29.20 in988.8 mb 0.00 in0.0 mm 0.00 in0.0 mm 0.08 in2.0 mm
06:09 PM 48.2°F9.0°C 47.5°F8.6°C 97% Calm Calm -- 29.20 in988.8 mb 0.00 in0.0 mm 0.00 in0.0 mm 0.08 in2.0 mm
06:14 PM 48.4°F9.1°C 47.7°F8.7°C 97% 0.2 mph E0.3 kmh E 1.1 mph1.8 kmh 29.20 in988.8 mb 0.00 in0.0 mm 0.00 in0.0 mm 0.08 in2.0 mm
06:19 PM 48.4°F9.1°C 47.7°F8.7°C 97% 0.2 mph E0.3 kmh E 1.1 mph1.8 kmh 29.20 in988.8 mb 0.00 in0.0 mm 0.00 in0.0 mm 0.08 in2.0 mm
06:24 PM 48.2°F9.0°C 47.5°F8.6°C 97% Calm Calm -- 29.19 in988.5 mb 0.00 in0.0 mm 0.00 in0.0 mm 0.08 in2.0 mm
06:29 PM 48.4°F9.1°C 47.7°F8.7°C 97% Calm Calm -- 29.19 in988.5 mb 0.00 in0.0 mm 0.00 in0.0 mm 0.08 in2.0 mm
06:34 PM 48.4°F9.1°C 47.7°F8.7°C 97% 0.2 mph E0.3 kmh E 1.1 mph1.8 kmh 29.19 in988.5 mb 0.00 in0.0 mm 0.00 in0.0 mm 0.08 in2.0 mm
06:39 PM 48.4°F9.1°C 47.7°F8.7°C 97% Calm Calm -- 29.19 in988.5 mb 0.00 in0.0 mm 0.00 in0.0 mm 0.08 in2.0 mm
06:44 PM 48.4°F9.1°C 47.7°F8.7°C 97% Calm Calm -- 29.19 in988.5 mb 0.00 in0.0 mm 0.00 in0.0 mm 0.08 in2.0 mm
06:49 PM 48.2°F9.0°C 47.5°F8.6°C 97% Calm Calm -- 29.19 in988.5 mb 0.00 in0.0 mm 0.00 in0.0 mm 0.08 in2.0 mm
06:54 PM 48.2°F9.0°C 47.5°F8.6°C 97% 0.2 mph E0.3 kmh E 1.1 mph1.8 kmh 29.19 in988.5 mb 0.00 in0.0 mm 0.00 in0.0 mm 0.08 in2.0 mm
06:59 PM 48.4°F9.1°C 47.7°F8.7°C 97% 0.2 mph E0.3 kmh E 1.1 mph1.8 kmh 29.19 in988.5 mb 0.00 in0.0 mm 0.00 in0.0 mm 0.08 in2.0 mm
07:04 PM 48.4°F9.1°C 47.7°F8.7°C 97% 0.2 mph E0.3 kmh E 1.1 mph1.8 kmh 29.19 in988.5 mb 0.00 in0.0 mm 0.00 in0.0 mm 0.08 in2.0 mm
07:09 PM 48.2°F9.0°C 47.5°F8.6°C 97% 1.1 mph E1.8 kmh E 1.1 mph1.8 kmh 29.18 in988.1 mb 0.00 in0.0 mm 0.00 in0.0 mm 0.08 in2.0 mm
07:14 PM 48.2°F9.0°C 47.5°F8.6°C 97% Calm Calm -- 29.18 in988.1 mb 0.00 in0.0 mm 0.00 in0.0 mm 0.08 in2.0 mm
07:19 PM 48.4°F9.1°C 47.7°F8.7°C 97% Calm Calm -- 29.18 in988.1 mb 0.00 in0.0 mm 0.00 in0.0 mm 0.08 in2.0 mm
07:24 PM 48.2°F9.0°C 47.5°F8.6°C 97% Calm Calm -- 29.19 in988.5 mb 0.00 in0.0 mm 0.00 in0.0 mm 0.08 in2.0 mm
07:29 PM 48.4°F9.1°C 47.7°F8.7°C 97% Calm Calm -- 29.18 in988.1 mb 0.00 in0.0 mm 0.00 in0.0 mm 0.08 in2.0 mm
07:34 PM 48.4°F9.1°C 47.7°F8.7°C 97% Calm Calm -- 29.19 in988.5 mb 0.00 in0.0 mm 0.00 in0.0 mm 0.08 in2.0 mm
07:39 PM 48.2°F9.0°C 47.5°F8.6°C 97% Calm Calm -- 29.18 in988.1 mb 0.00 in0.0 mm 0.00 in0.0 mm 0.08 in2.0 mm
07:44 PM 48.4°F9.1°C 47.7°F8.7°C 97% Calm Calm -- 29.19 in988.5 mb 0.00 in0.0 mm 0.00 in0.0 mm 0.08 in2.0 mm
07:49 PM 48.4°F9.1°C 47.7°F8.7°C 97% Calm Calm -- 29.18 in988.1 mb 0.00 in0.0 mm 0.00 in0.0 mm 0.08 in2.0 mm
07:54 PM 48.4°F9.1°C 47.7°F8.7°C 97% Calm Calm -- 29.18 in988.1 mb 0.00 in0.0 mm 0.00 in0.0 mm 0.08 in2.0 mm
07:59 PM 48.4°F9.1°C 47.7°F8.7°C 97% Calm Calm -- 29.18 in988.1 mb 0.00 in0.0 mm 0.00 in0.0 mm 0.08 in2.0 mm
08:04 PM 48.4°F9.1°C 47.7°F8.7°C 97% Calm Calm -- 29.17 in987.8 mb 0.00 in0.0 mm 0.00 in0.0 mm 0.08 in2.0 mm
08:09 PM 48.4°F9.1°C 47.7°F8.7°C 97% 0.2 mph ESE0.3 kmh ESE 1.1 mph1.8 kmh 29.18 in988.1 mb 0.00 in0.0 mm 0.00 in0.0 mm 0.08 in2.0 mm
08:14 PM 48.4°F9.1°C 47.7°F8.7°C 97% Calm Calm -- 29.18 in988.1 mb 0.00 in0.0 mm 0.00 in0.0 mm 0.08 in2.0 mm
08:19 PM 48.4°F9.1°C 47.7°F8.7°C 97% Calm Calm -- 29.18 in988.1 mb 0.00 in0.0 mm 0.00 in0.0 mm 0.08 in2.0 mm
08:24 PM 48.4°F9.1°C 47.7°F8.7°C 97% Calm Calm -- 29.17 in987.8 mb 0.00 in0.0 mm 0.00 in0.0 mm 0.08 in2.0 mm
08:29 PM 48.4°F9.1°C 47.7°F8.7°C 97% Calm Calm -- 29.18 in988.1 mb 0.00 in0.0 mm 0.00 in0.0 mm 0.08 in2.0 mm
08:34 PM 48.4°F9.1°C 47.7°F8.7°C 97% Calm Calm -- 29.18 in988.1 mb 0.00 in0.0 mm 0.00 in0.0 mm 0.08 in2.0 mm
08:39 PM 48.6°F9.2°C 47.8°F8.8°C 97% Calm Calm -- 29.17 in987.8 mb 0.00 in0.0 mm 0.00 in0.0 mm 0.08 in2.0 mm
08:44 PM 48.6°F9.2°C 47.8°F8.8°C 97% Calm Calm -- 29.17 in987.8 mb 0.00 in0.0 mm 0.00 in0.0 mm 0.08 in2.0 mm
08:49 PM 48.6°F9.2°C 47.8°F8.8°C 97% Calm Calm -- 29.18 in988.1 mb 0.00 in0.0 mm 0.00 in0.0 mm 0.08 in2.0 mm
08:54 PM 48.6°F9.2°C 47.8°F8.8°C 97% Calm Calm -- 29.18 in988.1 mb 0.00 in0.0 mm 0.00 in0.0 mm 0.08 in2.0 mm
08:59 PM 48.6°F9.2°C 47.8°F8.8°C 97% Calm Calm -- 29.18 in988.1 mb 0.00 in0.0 mm 0.00 in0.0 mm 0.08 in2.0 mm
09:04 PM 48.6°F9.2°C 47.8°F8.8°C 97% Calm Calm -- 29.18 in988.1 mb 0.00 in0.0 mm 0.00 in0.0 mm 0.08 in2.0 mm
09:09 PM 48.6°F9.2°C 47.8°F8.8°C 97% Calm Calm -- 29.18 in988.1 mb 0.00 in0.0 mm 0.00 in0.0 mm 0.08 in2.0 mm
09:14 PM 48.6°F9.2°C 47.8°F8.8°C 97% Calm Calm -- 29.17 in987.8 mb 0.00 in0.0 mm 0.00 in0.0 mm 0.08 in2.0 mm
09:19 PM 48.6°F9.2°C 47.8°F8.8°C 97% Calm Calm -- 29.18 in988.1 mb 0.00 in0.0 mm 0.00 in0.0 mm 0.08 in2.0 mm
09:24 PM 48.7°F9.3°C 48.0°F8.9°C 97% Calm Calm -- 29.18 in988.1 mb 0.00 in0.0 mm 0.00 in0.0 mm 0.08 in2.0 mm
09:29 PM 48.7°F9.3°C 48.0°F8.9°C 97% Calm Calm -- 29.17 in987.8 mb 0.00 in0.0 mm 0.00 in0.0 mm 0.08 in2.0 mm
09:34 PM 48.7°F9.3°C 48.0°F8.9°C 97% Calm Calm -- 29.17 in987.8 mb 0.00 in0.0 mm 0.00 in0.0 mm 0.08 in2.0 mm
09:39 PM 48.7°F9.3°C 48.0°F8.9°C 97% Calm Calm -- 29.17 in987.8 mb 0.00 in0.0 mm 0.00 in0.0 mm 0.08 in2.0 mm
09:44 PM 48.7°F9.3°C 48.0°F8.9°C 97% Calm Calm -- 29.17 in987.8 mb 0.00 in0.0 mm 0.00 in0.0 mm 0.08 in2.0 mm
09:49 PM 48.7°F9.3°C 48.0°F8.9°C 97% Calm Calm -- 29.18 in988.1 mb 0.00 in0.0 mm 0.00 in0.0 mm 0.08 in2.0 mm
09:54 PM 48.7°F9.3°C 48.0°F8.9°C 97% Calm Calm -- 29.19 in988.5 mb 0.00 in0.0 mm 0.00 in0.0 mm 0.08 in2.0 mm
09:59 PM 48.7°F9.3°C 48.0°F8.9°C 97% Calm Calm -- 29.19 in988.5 mb 0.00 in0.0 mm 0.00 in0.0 mm 0.08 in2.0 mm
10:04 PM 48.9°F9.4°C 48.2°F9.0°C 97% Calm Calm -- 29.19 in988.5 mb 0.00 in0.0 mm 0.00 in0.0 mm 0.08 in2.0 mm
10:09 PM 48.7°F9.3°C 48.0°F8.9°C 97% Calm Calm -- 29.18 in988.1 mb 0.00 in0.0 mm 0.00 in0.0 mm 0.08 in2.0 mm
10:14 PM 48.7°F9.3°C 48.0°F8.9°C 97% Calm Calm -- 29.18 in988.1 mb 0.00 in0.0 mm 0.00 in0.0 mm 0.08 in2.0 mm
10:19 PM 48.7°F9.3°C 48.0°F8.9°C 97% Calm Calm -- 29.18 in988.1 mb 0.00 in0.0 mm 0.00 in0.0 mm 0.08 in2.0 mm
10:24 PM 48.7°F9.3°C 48.0°F8.9°C 97% Calm Calm -- 29.18 in988.1 mb 0.00 in0.0 mm 0.00 in0.0 mm 0.08 in2.0 mm
10:29 PM 48.9°F9.4°C 48.2°F9.0°C 97% Calm Calm -- 29.18 in988.1 mb 0.00 in0.0 mm 0.00 in0.0 mm 0.08 in2.0 mm
10:34 PM 48.9°F9.4°C 48.2°F9.0°C 97% Calm Calm -- 29.18 in988.1 mb 0.00 in0.0 mm 0.00 in0.0 mm 0.08 in2.0 mm
10:39 PM 48.9°F9.4°C 48.2°F9.0°C 97% Calm Calm -- 29.18 in988.1 mb 0.00 in0.0 mm 0.00 in0.0 mm 0.08 in2.0 mm
10:44 PM 48.9°F9.4°C 48.2°F9.0°C 97% Calm Calm -- 29.18 in988.1 mb 0.00 in0.0 mm 0.00 in0.0 mm 0.08 in2.0 mm
10:49 PM 48.9°F9.4°C 48.2°F9.0°C 97% Calm Calm -- 29.17 in987.8 mb 0.00 in0.0 mm 0.00 in0.0 mm 0.08 in2.0 mm
10:54 PM 48.9°F9.4°C 48.2°F9.0°C 97% Calm Calm -- 29.17 in987.8 mb 0.00 in0.0 mm 0.00 in0.0 mm 0.08 in2.0 mm
10:59 PM 48.9°F9.4°C 48.2°F9.0°C 97% 0.4 mph SSE0.6 kmh SSE 1.1 mph1.8 kmh 29.17 in987.8 mb 0.00 in0.0 mm 0.00 in0.0 mm 0.08 in2.0 mm
11:04 PM 48.9°F9.4°C 48.2°F9.0°C 97% Calm Calm -- 29.16 in987.5 mb 0.00 in0.0 mm 0.00 in0.0 mm 0.08 in2.0 mm
11:09 PM 48.9°F9.4°C 48.2°F9.0°C 97% Calm Calm -- 29.16 in987.5 mb 0.00 in0.0 mm 0.00 in0.0 mm 0.08 in2.0 mm
11:14 PM 48.9°F9.4°C 48.2°F9.0°C 97% 0.2 mph ESE0.3 kmh ESE 1.1 mph1.8 kmh 29.16 in987.5 mb 0.00 in0.0 mm 0.00 in0.0 mm 0.08 in2.0 mm
11:19 PM 48.9°F9.4°C 48.2°F9.0°C 97% 0.2 mph SE0.3 kmh SE 1.1 mph1.8 kmh 29.16 in987.5 mb 0.00 in0.0 mm 0.00 in0.0 mm 0.08 in2.0 mm
11:24 PM 48.9°F9.4°C 48.4°F9.1°C 98% Calm Calm -- 29.16 in987.5 mb 0.00 in0.0 mm 0.00 in0.0 mm 0.08 in2.0 mm
11:29 PM 49.1°F9.5°C 48.6°F9.2°C 98% 0.2 mph NE0.3 kmh NE 1.1 mph1.8 kmh 29.15 in987.1 mb 0.00 in0.0 mm 0.00 in0.0 mm 0.08 in2.0 mm
11:34 PM 49.1°F9.5°C 48.6°F9.2°C 98% Calm Calm -- 29.14 in986.8 mb 0.00 in0.0 mm 0.00 in0.0 mm 0.08 in2.0 mm
11:39 PM 49.1°F9.5°C 48.6°F9.2°C 98% Calm Calm -- 29.14 in986.8 mb 0.00 in0.0 mm 0.00 in0.0 mm 0.08 in2.0 mm
11:44 PM 49.1°F9.5°C 48.6°F9.2°C 98% Calm Calm -- 29.15 in987.1 mb 0.00 in0.0 mm 0.00 in0.0 mm 0.08 in2.0 mm
11:49 PM 49.1°F9.5°C 48.6°F9.2°C 98% Calm Calm -- 29.14 in986.8 mb 0.00 in0.0 mm 0.00 in0.0 mm 0.08 in2.0 mm
11:54 PM 49.1°F9.5°C 48.6°F9.2°C 98% Calm Calm -- 29.14 in986.8 mb 0.00 in0.0 mm 0.00 in0.0 mm 0.08 in2.0 mm
11:59 PM 49.1°F9.5°C 48.6°F9.2°C 98% Calm Calm -- 29.15 in987.1 mb 0.00 in0.0 mm 0.00 in0.0 mm 0.08 in2.0 mm